sensor_id;sensor_type;location;lat;lon;timestamp;P1;durP1;ratioP1;P2;durP2;ratioP2
51612;SDS011;37694;51.748;14.326;2023-02-28T00:00:10;11.90;;;5.97;;
51612;SDS011;37694;51.748;14.326;2023-02-28T00:02:38;7.22;;;5.60;;
51612;SDS011;37694;51.748;14.326;2023-02-28T00:05:08;8.98;;;6.60;;
51612;SDS011;37694;51.748;14.326;2023-02-28T00:07:34;7.75;;;5.40;;
51612;SDS011;37694;51.748;14.326;2023-02-28T00:10:00;10.35;;;6.05;;
51612;SDS011;37694;51.748;14.326;2023-02-28T00:12:27;7.93;;;5.57;;
51612;SDS011;37694;51.748;14.326;2023-02-28T00:14:52;6.93;;;5.90;;
51612;SDS011;37694;51.748;14.326;2023-02-28T00:17:18;8.98;;;6.15;;
51612;SDS011;37694;51.748;14.326;2023-02-28T00:19:46;7.60;;;5.10;;
51612;SDS011;37694;51.748;14.326;2023-02-28T00:22:13;7.18;;;5.95;;
51612;SDS011;37694;51.748;14.326;2023-02-28T00:24:40;8.27;;;5.88;;
51612;SDS011;37694;51.748;14.326;2023-02-28T00:27:05;7.15;;;5.68;;
51612;SDS011;37694;51.748;14.326;2023-02-28T00:29:31;10.65;;;5.30;;
51612;SDS011;37694;51.748;14.326;2023-02-28T00:31:57;10.63;;;5.70;;
51612;SDS011;37694;51.748;14.326;2023-02-28T00:34:22;6.18;;;5.18;;
51612;SDS011;37694;51.748;14.326;2023-02-28T00:36:48;9.43;;;6.10;;
51612;SDS011;37694;51.748;14.326;2023-02-28T00:39:14;8.48;;;6.05;;
51612;SDS011;37694;51.748;14.326;2023-02-28T00:41:40;6.97;;;5.22;;
51612;SDS011;37694;51.748;14.326;2023-02-28T00:44:05;9.82;;;5.50;;
51612;SDS011;37694;51.748;14.326;2023-02-28T00:46:31;7.38;;;5.30;;
51612;SDS011;37694;51.748;14.326;2023-02-28T00:48:57;9.85;;;5.90;;
51612;SDS011;37694;51.748;14.326;2023-02-28T00:51:23;6.15;;;5.55;;
51612;SDS011;37694;51.748;14.326;2023-02-28T00:53:49;8.40;;;6.15;;
51612;SDS011;37694;51.748;14.326;2023-02-28T00:56:14;10.20;;;6.15;;
51612;SDS011;37694;51.748;14.326;2023-02-28T00:58:40;8.70;;;6.88;;
51612;SDS011;37694;51.748;14.326;2023-02-28T01:01:06;7.20;;;5.40;;
51612;SDS011;37694;51.748;14.326;2023-02-28T01:03:32;6.40;;;5.70;;
51612;SDS011;37694;51.748;14.326;2023-02-28T01:05:58;9.15;;;6.45;;
51612;SDS011;37694;51.748;14.326;2023-02-28T01:08:23;9.55;;;5.72;;
51612;SDS011;37694;51.748;14.326;2023-02-28T01:10:51;9.45;;;6.22;;
51612;SDS011;37694;51.748;14.326;2023-02-28T01:13:17;7.32;;;6.15;;
51612;SDS011;37694;51.748;14.326;2023-02-28T01:15:45;10.73;;;6.15;;
51612;SDS011;37694;51.748;14.326;2023-02-28T01:20:43;7.55;;;5.22;;
51612;SDS011;37694;51.748;14.326;2023-02-28T01:23:09;8.32;;;6.32;;
51612;SDS011;37694;51.748;14.326;2023-02-28T01:25:35;7.32;;;6.18;;
51612;SDS011;37694;51.748;14.326;2023-02-28T01:28:01;7.43;;;6.00;;
51612;SDS011;37694;51.748;14.326;2023-02-28T01:30:27;10.10;;;6.60;;
51612;SDS011;37694;51.748;14.326;2023-02-28T01:32:52;6.97;;;5.70;;
51612;SDS011;37694;51.748;14.326;2023-02-28T01:35:18;6.38;;;5.78;;
51612;SDS011;37694;51.748;14.326;2023-02-28T01:37:44;9.95;;;5.60;;
51612;SDS011;37694;51.748;14.326;2023-02-28T01:40:10;8.80;;;6.15;;
51612;SDS011;37694;51.748;14.326;2023-02-28T01:42:36;9.52;;;6.53;;
51612;SDS011;37694;51.748;14.326;2023-02-28T01:47:50;7.28;;;5.38;;
51612;SDS011;37694;51.748;14.326;2023-02-28T01:50:22;7.35;;;5.93;;
51612;SDS011;37694;51.748;14.326;2023-02-28T01:52:50;9.20;;;6.15;;
51612;SDS011;37694;51.748;14.326;2023-02-28T01:55:19;8.63;;;6.60;;
51612;SDS011;37694;51.748;14.326;2023-02-28T01:57:48;7.97;;;6.15;;
51612;SDS011;37694;51.748;14.326;2023-02-28T02:00:18;11.23;;;6.38;;
51612;SDS011;37694;51.748;14.326;2023-02-28T02:02:48;7.28;;;5.90;;
51612;SDS011;37694;51.748;14.326;2023-02-28T02:05:19;7.63;;;6.57;;
51612;SDS011;37694;51.748;14.326;2023-02-28T02:07:55;7.38;;;5.57;;
51612;SDS011;37694;51.748;14.326;2023-02-28T02:10:52;7.60;;;5.85;;
51612;SDS011;37694;51.748;14.326;2023-02-28T02:18:51;7.97;;;5.57;;
51612;SDS011;37694;51.748;14.326;2023-02-28T02:24:29;9.18;;;6.20;;
51612;SDS011;37694;51.748;14.326;2023-02-28T02:32:47;11.02;;;6.13;;
51612;SDS011;37694;51.748;14.326;2023-02-28T02:35:43;10.50;;;6.35;;
51612;SDS011;37694;51.748;14.326;2023-02-28T02:38:33;7.05;;;5.60;;
51612;SDS011;37694;51.748;14.326;2023-02-28T02:46:33;7.05;;;5.90;;
51612;SDS011;37694;51.748;14.326;2023-02-28T02:49:03;8.60;;;6.03;;
51612;SDS011;37694;51.748;14.326;2023-02-28T02:51:33;8.05;;;5.25;;
51612;SDS011;37694;51.748;14.326;2023-02-28T02:54:02;10.27;;;5.90;;
51612;SDS011;37694;51.748;14.326;2023-02-28T02:59:02;7.40;;;5.85;;
51612;SDS011;37694;51.748;14.326;2023-02-28T03:01:31;7.60;;;5.75;;
51612;SDS011;37694;51.748;14.326;2023-02-28T03:04:03;10.00;;;6.10;;
51612;SDS011;37694;51.748;14.326;2023-02-28T03:06:36;6.57;;;5.60;;
51612;SDS011;37694;51.748;14.326;2023-02-28T03:09:02;6.47;;;5.50;;
51612;SDS011;37694;51.748;14.326;2023-02-28T03:11:29;9.60;;;5.50;;
51612;SDS011;37694;51.748;14.326;2023-02-28T03:21:53;5.93;;;5.25;;
51612;SDS011;37694;51.748;14.326;2023-02-28T03:25:05;10.02;;;6.20;;
51612;SDS011;37694;51.748;14.326;2023-02-28T03:27:35;8.98;;;6.22;;
51612;SDS011;37694;51.748;14.326;2023-02-28T03:30:06;8.80;;;5.72;;
51612;SDS011;37694;51.748;14.326;2023-02-28T03:35:16;7.10;;;4.95;;
51612;SDS011;37694;51.748;14.326;2023-02-28T03:37:48;6.97;;;5.65;;
51612;SDS011;37694;51.748;14.326;2023-02-28T03:40:19;6.60;;;5.35;;
51612;SDS011;37694;51.748;14.326;2023-02-28T03:42:48;7.15;;;5.13;;
51612;SDS011;37694;51.748;14.326;2023-02-28T03:45:23;7.40;;;5.97;;
51612;SDS011;37694;51.748;14.326;2023-02-28T03:47:56;6.93;;;5.07;;
51612;SDS011;37694;51.748;14.326;2023-02-28T03:50:39;6.90;;;5.35;;
51612;SDS011;37694;51.748;14.326;2023-02-28T03:56:03;12.02;;;5.55;;
51612;SDS011;37694;51.748;14.326;2023-02-28T03:58:41;7.43;;;5.30;;
51612;SDS011;37694;51.748;14.326;2023-02-28T04:01:28;7.53;;;5.18;;
51612;SDS011;37694;51.748;14.326;2023-02-28T04:03:58;7.65;;;5.50;;
51612;SDS011;37694;51.748;14.326;2023-02-28T04:06:24;6.55;;;5.78;;
51612;SDS011;37694;51.748;14.326;2023-02-28T04:08:50;6.35;;;5.20;;
51612;SDS011;37694;51.748;14.326;2023-02-28T04:13:41;7.25;;;5.70;;
51612;SDS011;37694;51.748;14.326;2023-02-28T04:16:08;7.60;;;5.50;;
51612;SDS011;37694;51.748;14.326;2023-02-28T04:18:40;7.50;;;4.97;;
51612;SDS011;37694;51.748;14.326;2023-02-28T04:21:08;7.68;;;5.38;;
51612;SDS011;37694;51.748;14.326;2023-02-28T04:23:34;6.95;;;5.28;;
51612;SDS011;37694;51.748;14.326;2023-02-28T04:26:00;8.18;;;5.32;;
51612;SDS011;37694;51.748;14.326;2023-02-28T04:28:25;6.57;;;5.05;;
51612;SDS011;37694;51.748;14.326;2023-02-28T04:30:58;7.40;;;5.13;;
51612;SDS011;37694;51.748;14.326;2023-02-28T04:33:26;6.63;;;5.70;;
51612;SDS011;37694;51.748;14.326;2023-02-28T04:35:58;6.63;;;5.68;;
51612;SDS011;37694;51.748;14.326;2023-02-28T04:38:24;6.05;;;4.70;;
51612;SDS011;37694;51.748;14.326;2023-02-28T04:40:50;6.63;;;5.28;;
51612;SDS011;37694;51.748;14.326;2023-02-28T04:43:16;5.82;;;4.82;;
51612;SDS011;37694;51.748;14.326;2023-02-28T04:45:41;7.72;;;4.93;;
51612;SDS011;37694;51.748;14.326;2023-02-28T04:48:07;9.63;;;4.90;;
51612;SDS011;37694;51.748;14.326;2023-02-28T04:50:33;8.70;;;4.50;;
51612;SDS011;37694;51.748;14.326;2023-02-28T04:52:58;5.97;;;4.80;;
51612;SDS011;37694;51.748;14.326;2023-02-28T04:55:24;7.45;;;4.38;;
51612;SDS011;37694;51.748;14.326;2023-02-28T04:57:50;7.63;;;4.25;;
51612;SDS011;37694;51.748;14.326;2023-02-28T05:00:15;6.13;;;4.45;;
51612;SDS011;37694;51.748;14.326;2023-02-28T05:02:42;6.47;;;4.95;;
51612;SDS011;37694;51.748;14.326;2023-02-28T05:05:08;7.65;;;5.20;;
51612;SDS011;37694;51.748;14.326;2023-02-28T05:07:33;7.03;;;4.88;;
51612;SDS011;37694;51.748;14.326;2023-02-28T05:09:59;7.78;;;5.10;;
51612;SDS011;37694;51.748;14.326;2023-02-28T05:12:25;5.95;;;4.57;;
51612;SDS011;37694;51.748;14.326;2023-02-28T05:14:50;6.65;;;4.68;;
51612;SDS011;37694;51.748;14.326;2023-02-28T05:17:16;5.75;;;4.53;;
51612;SDS011;37694;51.748;14.326;2023-02-28T05:19:42;6.15;;;4.30;;
51612;SDS011;37694;51.748;14.326;2023-02-28T05:22:12;7.22;;;4.47;;
51612;SDS011;37694;51.748;14.326;2023-02-28T05:24:40;7.95;;;4.22;;
51612;SDS011;37694;51.748;14.326;2023-02-28T05:27:07;5.38;;;4.30;;
51612;SDS011;37694;51.748;14.326;2023-02-28T05:29:34;7.55;;;4.20;;
51612;SDS011;37694;51.748;14.326;2023-02-28T05:32:09;6.53;;;4.68;;
51612;SDS011;37694;51.748;14.326;2023-02-28T05:34:36;7.00;;;4.50;;
51612;SDS011;37694;51.748;14.326;2023-02-28T05:37:03;5.35;;;4.50;;
51612;SDS011;37694;51.748;14.326;2023-02-28T05:39:28;4.07;;;3.67;;
51612;SDS011;37694;51.748;14.326;2023-02-28T05:41:54;4.75;;;4.25;;
51612;SDS011;37694;51.748;14.326;2023-02-28T05:44:20;4.88;;;4.25;;
51612;SDS011;37694;51.748;14.326;2023-02-28T05:46:46;7.60;;;4.22;;
51612;SDS011;37694;51.748;14.326;2023-02-28T05:49:11;4.30;;;3.40;;
51612;SDS011;37694;51.748;14.326;2023-02-28T05:51:37;7.82;;;4.68;;
51612;SDS011;37694;51.748;14.326;2023-02-28T05:54:05;4.88;;;3.97;;
51612;SDS011;37694;51.748;14.326;2023-02-28T05:56:31;5.90;;;4.40;;
51612;SDS011;37694;51.748;14.326;2023-02-28T05:58:59;5.82;;;3.85;;
51612;SDS011;37694;51.748;14.326;2023-02-28T06:04:05;11.15;;;4.28;;
51612;SDS011;37694;51.748;14.326;2023-02-28T06:06:35;10.05;;;4.15;;
51612;SDS011;37694;51.748;14.326;2023-02-28T06:09:02;7.53;;;3.97;;
51612;SDS011;37694;51.748;14.326;2023-02-28T06:11:31;20.63;;;4.45;;
51612;SDS011;37694;51.748;14.326;2023-02-28T06:13:58;8.73;;;4.68;;
51612;SDS011;37694;51.748;14.326;2023-02-28T06:16:26;11.85;;;4.32;;
51612;SDS011;37694;51.748;14.326;2023-02-28T06:18:52;12.95;;;4.30;;
51612;SDS011;37694;51.748;14.326;2023-02-28T06:21:21;13.27;;;5.05;;
51612;SDS011;37694;51.748;14.326;2023-02-28T06:23:47;8.30;;;4.15;;
51612;SDS011;37694;51.748;14.326;2023-02-28T06:26:13;9.35;;;4.57;;
51612;SDS011;37694;51.748;14.326;2023-02-28T06:28:39;8.30;;;4.05;;
51612;SDS011;37694;51.748;14.326;2023-02-28T06:31:11;8.07;;;4.70;;
51612;SDS011;37694;51.748;14.326;2023-02-28T06:33:39;43.30;;;11.70;;
51612;SDS011;37694;51.748;14.326;2023-02-28T06:36:05;63.53;;;13.52;;
51612;SDS011;37694;51.748;14.326;2023-02-28T06:38:32;39.40;;;10.82;;
51612;SDS011;37694;51.748;14.326;2023-02-28T06:40:59;28.42;;;8.15;;
51612;SDS011;37694;51.748;14.326;2023-02-28T06:43:25;30.83;;;7.88;;
51612;SDS011;37694;51.748;14.326;2023-02-28T06:45:54;31.77;;;8.70;;
51612;SDS011;37694;51.748;14.326;2023-02-28T06:48:21;32.55;;;8.25;;
51612;SDS011;37694;51.748;14.326;2023-02-28T06:50:47;28.15;;;9.25;;
51612;SDS011;37694;51.748;14.326;2023-02-28T06:53:13;35.83;;;9.20;;
51612;SDS011;37694;51.748;14.326;2023-02-28T06:55:39;41.20;;;7.70;;
51612;SDS011;37694;51.748;14.326;2023-02-28T06:58:06;40.55;;;8.23;;
51612;SDS011;37694;51.748;14.326;2023-02-28T07:00:40;42.65;;;8.23;;
51612;SDS011;37694;51.748;14.326;2023-02-28T07:03:07;33.50;;;6.82;;
51612;SDS011;37694;51.748;14.326;2023-02-28T07:05:34;49.17;;;8.07;;
51612;SDS011;37694;51.748;14.326;2023-02-28T07:08:00;22.58;;;6.63;;
51612;SDS011;37694;51.748;14.326;2023-02-28T07:10:28;54.00;;;7.95;;
51612;SDS011;37694;51.748;14.326;2023-02-28T07:12:54;31.67;;;7.85;;
51612;SDS011;37694;51.748;14.326;2023-02-28T07:15:19;35.92;;;8.35;;
51612;SDS011;37694;51.748;14.326;2023-02-28T07:17:45;36.30;;;7.65;;
51612;SDS011;37694;51.748;14.326;2023-02-28T07:20:11;29.27;;;6.88;;
51612;SDS011;37694;51.748;14.326;2023-02-28T07:22:37;54.17;;;9.55;;
51612;SDS011;37694;51.748;14.326;2023-02-28T07:25:04;29.98;;;7.53;;
51612;SDS011;37694;51.748;14.326;2023-02-28T07:27:30;37.60;;;7.32;;
51612;SDS011;37694;51.748;14.326;2023-02-28T07:29:56;34.15;;;7.25;;
51612;SDS011;37694;51.748;14.326;2023-02-28T07:32:22;27.05;;;7.85;;
51612;SDS011;37694;51.748;14.326;2023-02-28T07:34:48;26.92;;;6.93;;
51612;SDS011;37694;51.748;14.326;2023-02-28T07:37:14;22.20;;;7.05;;
51612;SDS011;37694;51.748;14.326;2023-02-28T07:39:40;26.55;;;7.05;;
51612;SDS011;37694;51.748;14.326;2023-02-28T07:42:08;27.15;;;7.30;;
51612;SDS011;37694;51.748;14.326;2023-02-28T07:44:36;29.63;;;7.65;;
51612;SDS011;37694;51.748;14.326;2023-02-28T07:47:08;25.20;;;7.40;;
51612;SDS011;37694;51.748;14.326;2023-02-28T07:49:35;25.67;;;7.30;;
51612;SDS011;37694;51.748;14.326;2023-02-28T07:52:03;17.27;;;6.68;;
51612;SDS011;37694;51.748;14.326;2023-02-28T07:54:29;30.65;;;8.18;;
51612;SDS011;37694;51.748;14.326;2023-02-28T07:56:55;27.15;;;7.57;;
51612;SDS011;37694;51.748;14.326;2023-02-28T07:59:21;19.35;;;7.00;;
51612;SDS011;37694;51.748;14.326;2023-02-28T08:01:46;20.17;;;7.50;;
51612;SDS011;37694;51.748;14.326;2023-02-28T08:04:15;22.77;;;7.72;;
51612;SDS011;37694;51.748;14.326;2023-02-28T08:06:43;21.00;;;6.53;;
51612;SDS011;37694;51.748;14.326;2023-02-28T08:09:09;14.70;;;6.70;;
51612;SDS011;37694;51.748;14.326;2023-02-28T08:11:35;20.10;;;6.88;;
51612;SDS011;37694;51.748;14.326;2023-02-28T08:14:01;24.83;;;6.93;;
51612;SDS011;37694;51.748;14.326;2023-02-28T08:16:27;21.90;;;7.00;;
51612;SDS011;37694;51.748;14.326;2023-02-28T08:18:53;16.52;;;6.20;;
51612;SDS011;37694;51.748;14.326;2023-02-28T08:21:19;22.52;;;6.38;;
51612;SDS011;37694;51.748;14.326;2023-02-28T08:23:46;13.90;;;6.15;;
51612;SDS011;37694;51.748;14.326;2023-02-28T08:26:13;18.90;;;6.75;;
51612;SDS011;37694;51.748;14.326;2023-02-28T08:28:39;20.65;;;5.65;;
51612;SDS011;37694;51.748;14.326;2023-02-28T08:31:09;13.25;;;6.05;;
51612;SDS011;37694;51.748;14.326;2023-02-28T08:33:36;17.08;;;6.53;;
51612;SDS011;37694;51.748;14.326;2023-02-28T08:36:04;18.55;;;6.95;;
51612;SDS011;37694;51.748;14.326;2023-02-28T08:38:30;12.98;;;5.97;;
51612;SDS011;37694;51.748;14.326;2023-02-28T08:40:59;15.52;;;5.55;;
51612;SDS011;37694;51.748;14.326;2023-02-28T08:43:26;13.68;;;5.72;;
51612;SDS011;37694;51.748;14.326;2023-02-28T08:45:53;13.73;;;5.95;;
51612;SDS011;37694;51.748;14.326;2023-02-28T08:48:21;10.25;;;5.70;;
51612;SDS011;37694;51.748;14.326;2023-02-28T08:51:01;11.82;;;5.93;;
51612;SDS011;37694;51.748;14.326;2023-02-28T08:53:29;15.10;;;6.10;;
51612;SDS011;37694;51.748;14.326;2023-02-28T08:55:56;11.55;;;5.72;;
51612;SDS011;37694;51.748;14.326;2023-02-28T08:58:27;10.57;;;6.55;;
51612;SDS011;37694;51.748;14.326;2023-02-28T09:00:53;14.55;;;6.28;;
51612;SDS011;37694;51.748;14.326;2023-02-28T09:03:19;11.52;;;6.20;;
51612;SDS011;37694;51.748;14.326;2023-02-28T09:06:19;10.95;;;5.63;;
51612;SDS011;37694;51.748;14.326;2023-02-28T09:08:38;13.98;;;6.00;;
51612;SDS011;37694;51.748;14.326;2023-02-28T09:11:05;19.58;;;6.82;;
51612;SDS011;37694;51.748;14.326;2023-02-28T09:13:31;11.00;;;5.40;;
51612;SDS011;37694;51.748;14.326;2023-02-28T09:15:58;11.02;;;5.45;;
51612;SDS011;37694;51.748;14.326;2023-02-28T09:18:25;14.93;;;6.20;;
51612;SDS011;37694;51.748;14.326;2023-02-28T09:20:51;10.60;;;6.20;;
51612;SDS011;37694;51.748;14.326;2023-02-28T09:23:17;13.45;;;5.40;;
51612;SDS011;37694;51.748;14.326;2023-02-28T09:25:50;13.82;;;5.72;;
51612;SDS011;37694;51.748;14.326;2023-02-28T09:28:17;12.40;;;5.35;;
51612;SDS011;37694;51.748;14.326;2023-02-28T09:30:44;14.00;;;5.60;;
51612;SDS011;37694;51.748;14.326;2023-02-28T09:33:12;10.02;;;5.57;;
51612;SDS011;37694;51.748;14.326;2023-02-28T09:35:38;10.90;;;5.78;;
51612;SDS011;37694;51.748;14.326;2023-02-28T09:38:04;14.45;;;5.63;;
51612;SDS011;37694;51.748;14.326;2023-02-28T09:40:30;11.00;;;6.00;;
51612;SDS011;37694;51.748;14.326;2023-02-28T09:42:57;13.88;;;5.85;;
51612;SDS011;37694;51.748;14.326;2023-02-28T09:48:06;8.88;;;5.10;;
51612;SDS011;37694;51.748;14.326;2023-02-28T09:50:41;9.25;;;5.25;;
51612;SDS011;37694;51.748;14.326;2023-02-28T09:53:33;9.50;;;5.57;;
51612;SDS011;37694;51.748;14.326;2023-02-28T09:56:05;10.40;;;5.68;;
51612;SDS011;37694;51.748;14.326;2023-02-28T10:01:06;11.15;;;5.80;;
51612;SDS011;37694;51.748;14.326;2023-02-28T10:03:40;7.07;;;5.35;;
51612;SDS011;37694;51.748;14.326;2023-02-28T10:06:19;8.35;;;5.65;;
51612;SDS011;37694;51.748;14.326;2023-02-28T10:11:27;9.35;;;5.47;;
51612;SDS011;37694;51.748;14.326;2023-02-28T10:14:01;9.45;;;4.88;;
51612;SDS011;37694;51.748;14.326;2023-02-28T10:16:35;8.00;;;4.57;;
51612;SDS011;37694;51.748;14.326;2023-02-28T10:24:52;6.70;;;5.00;;
51612;SDS011;37694;51.748;14.326;2023-02-28T10:27:23;9.10;;;5.45;;
51612;SDS011;37694;51.748;14.326;2023-02-28T10:29:54;7.03;;;4.80;;
51612;SDS011;37694;51.748;14.326;2023-02-28T10:32:23;8.90;;;5.20;;
51612;SDS011;37694;51.748;14.326;2023-02-28T10:35:00;7.50;;;5.20;;
51612;SDS011;37694;51.748;14.326;2023-02-28T10:37:38;6.60;;;4.35;;
51612;SDS011;37694;51.748;14.326;2023-02-28T10:40:31;6.97;;;4.53;;
51612;SDS011;37694;51.748;14.326;2023-02-28T10:45:38;7.15;;;4.60;;
51612;SDS011;37694;51.748;14.326;2023-02-28T10:56:23;5.43;;;3.60;;
51612;SDS011;37694;51.748;14.326;2023-02-28T10:59:22;8.35;;;5.05;;
51612;SDS011;37694;51.748;14.326;2023-02-28T11:01:52;7.55;;;4.10;;
51612;SDS011;37694;51.748;14.326;2023-02-28T11:06:58;8.30;;;4.38;;
51612;SDS011;37694;51.748;14.326;2023-02-28T11:09:30;6.70;;;4.45;;
51612;SDS011;37694;51.748;14.326;2023-02-28T11:12:00;7.43;;;4.07;;
51612;SDS011;37694;51.748;14.326;2023-02-28T11:14:29;6.85;;;4.65;;
51612;SDS011;37694;51.748;14.326;2023-02-28T11:17:02;6.53;;;4.57;;
51612;SDS011;37694;51.748;14.326;2023-02-28T11:19:40;8.85;;;4.70;;
51612;SDS011;37694;51.748;14.326;2023-02-28T11:22:10;8.93;;;4.22;;
51612;SDS011;37694;51.748;14.326;2023-02-28T11:24:42;5.55;;;3.95;;
51612;SDS011;37694;51.748;14.326;2023-02-28T11:27:26;7.20;;;4.60;;
51612;SDS011;37694;51.748;14.326;2023-02-28T11:32:51;5.57;;;3.35;;
51612;SDS011;37694;51.748;14.326;2023-02-28T11:35:19;7.55;;;4.90;;
51612;SDS011;37694;51.748;14.326;2023-02-28T11:37:49;6.18;;;4.07;;
51612;SDS011;37694;51.748;14.326;2023-02-28T11:40:16;8.45;;;4.50;;
51612;SDS011;37694;51.748;14.326;2023-02-28T11:50:45;6.97;;;4.18;;
51612;SDS011;37694;51.748;14.326;2023-02-28T12:07:16;4.88;;;3.83;;
51612;SDS011;37694;51.748;14.326;2023-02-28T12:12:50;4.97;;;3.97;;
51612;SDS011;37694;51.748;14.326;2023-02-28T12:18:15;5.93;;;4.18;;
51612;SDS011;37694;51.748;14.326;2023-02-28T12:28:58;5.68;;;4.47;;
51612;SDS011;37694;51.748;14.326;2023-02-28T12:31:47;7.15;;;4.07;;
51612;SDS011;37694;51.748;14.326;2023-02-28T12:34:18;4.72;;;3.72;;
51612;SDS011;37694;51.748;14.326;2023-02-28T12:36:47;6.72;;;3.97;;
51612;SDS011;37694;51.748;14.326;2023-02-28T12:39:19;4.03;;;3.40;;
51612;SDS011;37694;51.748;14.326;2023-02-28T12:41:54;4.00;;;3.15;;
51612;SDS011;37694;51.748;14.326;2023-02-28T12:44:34;4.55;;;3.60;;
51612;SDS011;37694;51.748;14.326;2023-02-28T12:47:15;3.70;;;2.92;;
51612;SDS011;37694;51.748;14.326;2023-02-28T12:52:37;5.55;;;4.25;;
51612;SDS011;37694;51.748;14.326;2023-02-28T12:55:14;4.75;;;3.40;;
51612;SDS011;37694;51.748;14.326;2023-02-28T12:57:48;4.43;;;3.58;;
51612;SDS011;37694;51.748;14.326;2023-02-28T13:00:22;5.75;;;3.80;;
51612;SDS011;37694;51.748;14.326;2023-02-28T13:10:56;4.38;;;3.45;;
51612;SDS011;37694;51.748;14.326;2023-02-28T13:13:28;3.53;;;3.22;;
51612;SDS011;37694;51.748;14.326;2023-02-28T13:21:07;4.82;;;3.42;;
51612;SDS011;37694;51.748;14.326;2023-02-28T13:23:39;4.28;;;3.35;;
51612;SDS011;37694;51.748;14.326;2023-02-28T13:34:30;5.78;;;3.78;;
51612;SDS011;37694;51.748;14.326;2023-02-28T13:50:14;5.05;;;3.22;;
51612;SDS011;37694;51.748;14.326;2023-02-28T14:07:26;4.53;;;3.20;;
51612;SDS011;37694;51.748;14.326;2023-02-28T14:10:02;4.13;;;2.92;;
51612;SDS011;37694;51.748;14.326;2023-02-28T14:15:30;3.22;;;2.78;;
51612;SDS011;37694;51.748;14.326;2023-02-28T14:18:16;4.13;;;2.88;;
51612;SDS011;37694;51.748;14.326;2023-02-28T14:20:48;4.65;;;3.00;;
51612;SDS011;37694;51.748;14.326;2023-02-28T14:23:35;5.18;;;3.75;;
51612;SDS011;37694;51.748;14.326;2023-02-28T14:26:30;4.75;;;3.10;;
51612;SDS011;37694;51.748;14.326;2023-02-28T14:37:15;4.03;;;3.30;;
51612;SDS011;37694;51.748;14.326;2023-02-28T14:39:43;4.68;;;3.40;;
51612;SDS011;37694;51.748;14.326;2023-02-28T14:42:29;5.22;;;3.20;;
51612;SDS011;37694;51.748;14.326;2023-02-28T14:44:58;3.13;;;2.83;;
51612;SDS011;37694;51.748;14.326;2023-02-28T14:47:25;3.58;;;2.90;;
51612;SDS011;37694;51.748;14.326;2023-02-28T14:52:24;4.22;;;3.35;;
51612;SDS011;37694;51.748;14.326;2023-02-28T14:55:14;3.15;;;2.70;;
51612;SDS011;37694;51.748;14.326;2023-02-28T14:57:53;5.38;;;2.92;;
51612;SDS011;37694;51.748;14.326;2023-02-28T15:00:27;3.60;;;2.70;;
51612;SDS011;37694;51.748;14.326;2023-02-28T15:02:55;4.20;;;2.90;;
51612;SDS011;37694;51.748;14.326;2023-02-28T15:10:31;3.13;;;2.83;;
51612;SDS011;37694;51.748;14.326;2023-02-28T15:13:01;4.20;;;3.38;;
51612;SDS011;37694;51.748;14.326;2023-02-28T15:18:37;4.15;;;2.92;;
51612;SDS011;37694;51.748;14.326;2023-02-28T15:21:06;4.25;;;3.10;;
51612;SDS011;37694;51.748;14.326;2023-02-28T15:23:36;3.83;;;2.83;;
51612;SDS011;37694;51.748;14.326;2023-02-28T15:26:05;4.47;;;3.53;;
51612;SDS011;37694;51.748;14.326;2023-02-28T15:28:31;4.95;;;2.92;;
51612;SDS011;37694;51.748;14.326;2023-02-28T15:30:59;3.40;;;2.70;;
51612;SDS011;37694;51.748;14.326;2023-02-28T15:33:27;7.35;;;3.45;;
51612;SDS011;37694;51.748;14.326;2023-02-28T15:36:30;4.72;;;3.20;;
51612;SDS011;37694;51.748;14.326;2023-02-28T15:38:54;5.50;;;2.92;;
51612;SDS011;37694;51.748;14.326;2023-02-28T15:41:24;8.32;;;3.33;;
51612;SDS011;37694;51.748;14.326;2023-02-28T15:49:23;8.18;;;3.30;;
51612;SDS011;37694;51.748;14.326;2023-02-28T15:51:50;4.88;;;2.97;;
51612;SDS011;37694;51.748;14.326;2023-02-28T15:54:34;8.40;;;3.38;;
51612;SDS011;37694;51.748;14.326;2023-02-28T15:57:04;8.77;;;2.95;;
51612;SDS011;37694;51.748;14.326;2023-02-28T15:59:34;8.60;;;2.92;;
51612;SDS011;37694;51.748;14.326;2023-02-28T16:07:53;8.45;;;3.53;;
51612;SDS011;37694;51.748;14.326;2023-02-28T16:10:21;5.85;;;3.42;;
51612;SDS011;37694;51.748;14.326;2023-02-28T16:12:52;10.23;;;3.08;;
51612;SDS011;37694;51.748;14.326;2023-02-28T16:15:20;9.55;;;3.22;;
51612;SDS011;37694;51.748;14.326;2023-02-28T16:17:54;7.50;;;2.53;;
51612;SDS011;37694;51.748;14.326;2023-02-28T16:20:22;7.32;;;2.53;;
51612;SDS011;37694;51.748;14.326;2023-02-28T16:22:52;4.40;;;2.13;;
51612;SDS011;37694;51.748;14.326;2023-02-28T16:25:19;12.88;;;2.75;;
51612;SDS011;37694;51.748;14.326;2023-02-28T16:27:49;6.80;;;2.28;;
51612;SDS011;37694;51.748;14.326;2023-02-28T16:30:25;10.35;;;2.33;;
51612;SDS011;37694;51.748;14.326;2023-02-28T16:32:54;9.23;;;2.50;;
51612;SDS011;37694;51.748;14.326;2023-02-28T16:35:20;4.50;;;1.63;;
51612;SDS011;37694;51.748;14.326;2023-02-28T16:37:47;9.68;;;2.10;;
51612;SDS011;37694;51.748;14.326;2023-02-28T16:40:20;11.70;;;2.08;;
51612;SDS011;37694;51.748;14.326;2023-02-28T16:42:48;11.00;;;2.63;;
51612;SDS011;37694;51.748;14.326;2023-02-28T16:45:21;9.65;;;1.90;;
51612;SDS011;37694;51.748;14.326;2023-02-28T16:47:51;4.78;;;1.70;;
51612;SDS011;37694;51.748;14.326;2023-02-28T16:50:22;4.72;;;2.22;;
51612;SDS011;37694;51.748;14.326;2023-02-28T16:52:49;3.05;;;2.05;;
51612;SDS011;37694;51.748;14.326;2023-02-28T16:55:17;9.88;;;2.10;;
51612;SDS011;37694;51.748;14.326;2023-02-28T16:57:43;2.50;;;1.80;;
51612;SDS011;37694;51.748;14.326;2023-02-28T17:00:12;2.95;;;1.92;;
51612;SDS011;37694;51.748;14.326;2023-02-28T17:02:38;5.95;;;2.35;;
51612;SDS011;37694;51.748;14.326;2023-02-28T17:05:05;4.20;;;1.85;;
51612;SDS011;37694;51.748;14.326;2023-02-28T17:07:31;6.22;;;1.80;;
51612;SDS011;37694;51.748;14.326;2023-02-28T17:09:57;3.33;;;1.92;;
51612;SDS011;37694;51.748;14.326;2023-02-28T17:12:24;3.55;;;1.80;;
51612;SDS011;37694;51.748;14.326;2023-02-28T17:14:50;4.47;;;2.75;;
51612;SDS011;37694;51.748;14.326;2023-02-28T17:17:17;7.00;;;2.08;;
51612;SDS011;37694;51.748;14.326;2023-02-28T17:19:45;5.80;;;1.90;;
51612;SDS011;37694;51.748;14.326;2023-02-28T17:22:10;1.65;;;1.50;;
51612;SDS011;37694;51.748;14.326;2023-02-28T17:24:36;3.50;;;1.75;;
51612;SDS011;37694;51.748;14.326;2023-02-28T17:27:03;2.40;;;1.38;;
51612;SDS011;37694;51.748;14.326;2023-02-28T17:29:29;1.58;;;1.48;;
51612;SDS011;37694;51.748;14.326;2023-02-28T17:31:54;1.73;;;1.48;;
51612;SDS011;37694;51.748;14.326;2023-02-28T17:34:20;3.92;;;1.42;;
51612;SDS011;37694;51.748;14.326;2023-02-28T17:36:47;9.27;;;1.73;;
51612;SDS011;37694;51.748;14.326;2023-02-28T17:39:13;4.60;;;2.15;;
51612;SDS011;37694;51.748;14.326;2023-02-28T17:41:44;7.88;;;2.00;;
51612;SDS011;37694;51.748;14.326;2023-02-28T17:44:10;4.05;;;1.73;;
51612;SDS011;37694;51.748;14.326;2023-02-28T17:46:36;7.38;;;2.00;;
51612;SDS011;37694;51.748;14.326;2023-02-28T17:49:02;9.43;;;1.65;;
51612;SDS011;37694;51.748;14.326;2023-02-28T17:51:28;6.30;;;1.65;;
51612;SDS011;37694;51.748;14.326;2023-02-28T17:53:54;5.13;;;1.98;;
51612;SDS011;37694;51.748;14.326;2023-02-28T17:56:21;3.15;;;1.73;;
51612;SDS011;37694;51.748;14.326;2023-02-28T17:58:48;6.13;;;1.55;;
51612;SDS011;37694;51.748;14.326;2023-02-28T18:01:15;5.28;;;1.90;;